sensor_id;sensor_type;location;lat;lon;timestamp;P1;durP1;ratioP1;P2;durP2;ratioP2
53757;SDS011;39674;59.860;30.672;2022-08-11T00:02:00;15.05;;;6.15;;
53757;SDS011;39674;59.860;30.672;2022-08-11T00:05:14;8.10;;;5.53;;
53757;SDS011;39674;59.860;30.672;2022-08-11T00:08:46;11.23;;;5.97;;
53757;SDS011;39674;59.860;30.672;2022-08-11T00:11:47;12.18;;;5.65;;
53757;SDS011;39674;59.860;30.672;2022-08-11T00:14:57;15.27;;;6.15;;
53757;SDS011;39674;59.860;30.672;2022-08-11T00:18:08;13.40;;;5.43;;
53757;SDS011;39674;59.860;30.672;2022-08-11T00:21:42;11.90;;;6.78;;
53757;SDS011;39674;59.860;30.672;2022-08-11T00:24:40;15.85;;;6.68;;
53757;SDS011;39674;59.860;30.672;2022-08-11T00:27:34;14.07;;;7.32;;
53757;SDS011;39674;59.860;30.672;2022-08-11T00:30:37;14.18;;;6.50;;
53757;SDS011;39674;59.860;30.672;2022-08-11T00:33:31;12.80;;;6.95;;
53757;SDS011;39674;59.860;30.672;2022-08-11T00:36:37;8.60;;;6.30;;
53757;SDS011;39674;59.860;30.672;2022-08-11T00:39:58;16.10;;;7.80;;
53757;SDS011;39674;59.860;30.672;2022-08-11T00:46:32;19.13;;;12.15;;
53757;SDS011;39674;59.860;30.672;2022-08-11T00:49:53;17.65;;;8.70;;
53757;SDS011;39674;59.860;30.672;2022-08-11T00:53:57;17.15;;;11.52;;
53757;SDS011;39674;59.860;30.672;2022-08-11T01:00:15;17.90;;;11.55;;
53757;SDS011;39674;59.860;30.672;2022-08-11T01:06:29;18.20;;;10.60;;
53757;SDS011;39674;59.860;30.672;2022-08-11T01:09:41;22.13;;;11.68;;
53757;SDS011;39674;59.860;30.672;2022-08-11T01:12:41;20.73;;;10.73;;
53757;SDS011;39674;59.860;30.672;2022-08-11T01:16:24;18.40;;;10.18;;
53757;SDS011;39674;59.860;30.672;2022-08-11T03:37:05;21.58;;;11.75;;
53757;SDS011;39674;59.860;30.672;2022-08-11T03:40:16;18.15;;;11.98;;
53757;SDS011;39674;59.860;30.672;2022-08-11T03:43:46;18.42;;;12.07;;
53757;SDS011;39674;59.860;30.672;2022-08-11T03:51:07;19.35;;;12.25;;
53757;SDS011;39674;59.860;30.672;2022-08-11T03:54:28;22.27;;;13.57;;
53757;SDS011;39674;59.860;30.672;2022-08-11T03:58:20;27.70;;;14.38;;
53757;SDS011;39674;59.860;30.672;2022-08-11T04:01:47;21.95;;;13.18;;
53757;SDS011;39674;59.860;30.672;2022-08-11T04:05:30;24.13;;;12.35;;
53757;SDS011;39674;59.860;30.672;2022-08-11T04:12:18;14.07;;;9.90;;
53757;SDS011;39674;59.860;30.672;2022-08-11T04:16:05;15.88;;;9.32;;
53757;SDS011;39674;59.860;30.672;2022-08-11T04:23:16;12.55;;;7.70;;
53757;SDS011;39674;59.860;30.672;2022-08-11T04:33:52;10.90;;;7.10;;
53757;SDS011;39674;59.860;30.672;2022-08-11T04:37:24;10.13;;;6.43;;
53757;SDS011;39674;59.860;30.672;2022-08-11T04:45:19;12.95;;;6.47;;
53757;SDS011;39674;59.860;30.672;2022-08-11T04:49:10;15.65;;;6.25;;
53757;SDS011;39674;59.860;30.672;2022-08-11T04:53:18;10.45;;;5.35;;
53757;SDS011;39674;59.860;30.672;2022-08-11T04:57:08;11.35;;;5.20;;
53757;SDS011;39674;59.860;30.672;2022-08-11T05:05:51;8.98;;;4.18;;
53757;SDS011;39674;59.860;30.672;2022-08-11T05:13:57;12.05;;;4.32;;
53757;SDS011;39674;59.860;30.672;2022-08-11T09:10:55;7.18;;;0.80;;
53757;SDS011;39674;59.860;30.672;2022-08-11T09:21:02;5.28;;;0.50;;
53757;SDS011;39674;59.860;30.672;2022-08-11T12:43:53;4.93;;;0.68;;
53757;SDS011;39674;59.860;30.672;2022-08-11T12:56:31;3.40;;;0.50;;
53757;SDS011;39674;59.860;30.672;2022-08-11T13:43:00;4.47;;;0.68;;
53757;SDS011;39674;59.860;30.672;2022-08-11T16:56:44;4.68;;;1.13;;
53757;SDS011;39674;59.860;30.672;2022-08-11T18:41:25;12.48;;;2.40;;
53757;SDS011;39674;59.860;30.672;2022-08-11T18:44:20;12.57;;;2.85;;
53757;SDS011;39674;59.860;30.672;2022-08-11T18:47:24;15.82;;;2.38;;
53757;SDS011;39674;59.860;30.672;2022-08-11T18:50:50;10.00;;;2.70;;
53757;SDS011;39674;59.860;30.672;2022-08-11T18:54:32;10.32;;;2.45;;
53757;SDS011;39674;59.860;30.672;2022-08-11T18:57:35;8.32;;;2.47;;
53757;SDS011;39674;59.860;30.672;2022-08-11T19:08:11;9.55;;;2.20;;
53757;SDS011;39674;59.860;30.672;2022-08-11T19:10:19;10.45;;;2.25;;
53757;SDS011;39674;59.860;30.672;2022-08-11T19:22:38;9.57;;;3.10;;
53757;SDS011;39674;59.860;30.672;2022-08-11T19:25:57;4.15;;;2.50;;
53757;SDS011;39674;59.860;30.672;2022-08-11T19:29:28;7.80;;;2.58;;
53757;SDS011;39674;59.860;30.672;2022-08-11T20:03:26;7.32;;;1.88;;
53757;SDS011;39674;59.860;30.672;2022-08-11T20:06:40;4.75;;;1.50;;
53757;SDS011;39674;59.860;30.672;2022-08-11T20:10:21;6.82;;;1.92;;
53757;SDS011;39674;59.860;30.672;2022-08-11T20:13:31;9.38;;;1.63;;
53757;SDS011;39674;59.860;30.672;2022-08-11T20:21:15;6.35;;;2.38;;
53757;SDS011;39674;59.860;30.672;2022-08-11T20:24:28;7.80;;;1.90;;
53757;SDS011;39674;59.860;30.672;2022-08-11T20:27:53;6.32;;;1.65;;
53757;SDS011;39674;59.860;30.672;2022-08-11T20:31:24;8.13;;;1.80;;
53757;SDS011;39674;59.860;30.672;2022-08-11T20:34:35;11.73;;;1.65;;
53757;SDS011;39674;59.860;30.672;2022-08-11T20:37:35;6.75;;;1.83;;
53757;SDS011;39674;59.860;30.672;2022-08-11T20:40:40;3.78;;;1.85;;
53757;SDS011;39674;59.860;30.672;2022-08-11T20:43:45;4.25;;;1.67;;
53757;SDS011;39674;59.860;30.672;2022-08-11T20:47:00;9.43;;;1.58;;
53757;SDS011;39674;59.860;30.672;2022-08-11T20:50:18;8.32;;;1.80;;
53757;SDS011;39674;59.860;30.672;2022-08-11T20:53:41;11.05;;;1.33;;
53757;SDS011;39674;59.860;30.672;2022-08-11T20:57:37;8.18;;;1.58;;
53757;SDS011;39674;59.860;30.672;2022-08-11T21:01:10;13.27;;;2.05;;
53757;SDS011;39674;59.860;30.672;2022-08-11T21:04:44;6.25;;;2.00;;
53757;SDS011;39674;59.860;30.672;2022-08-11T21:08:09;7.72;;;2.08;;
53757;SDS011;39674;59.860;30.672;2022-08-11T21:11:49;6.07;;;1.55;;
53757;SDS011;39674;59.860;30.672;2022-08-11T21:18:27;6.43;;;1.67;;
53757;SDS011;39674;59.860;30.672;2022-08-11T21:22:03;8.25;;;2.00;;
53757;SDS011;39674;59.860;30.672;2022-08-11T21:24:58;8.30;;;1.95;;
53757;SDS011;39674;59.860;30.672;2022-08-11T21:28:04;5.03;;;2.10;;
53757;SDS011;39674;59.860;30.672;2022-08-11T21:31:01;6.50;;;1.83;;
53757;SDS011;39674;59.860;30.672;2022-08-11T21:33:57;4.45;;;1.85;;
53757;SDS011;39674;59.860;30.672;2022-08-11T21:36:55;11.18;;;2.05;;
53757;SDS011;39674;59.860;30.672;2022-08-11T21:39:54;2.22;;;1.58;;
53757;SDS011;39674;59.860;30.672;2022-08-11T21:43:01;8.75;;;2.13;;
53757;SDS011;39674;59.860;30.672;2022-08-11T21:45:52;7.85;;;2.00;;
53757;SDS011;39674;59.860;30.672;2022-08-11T21:48:42;8.05;;;1.83;;
53757;SDS011;39674;59.860;30.672;2022-08-11T21:51:45;3.50;;;1.58;;
53757;SDS011;39674;59.860;30.672;2022-08-11T21:54:32;9.10;;;3.03;;
53757;SDS011;39674;59.860;30.672;2022-08-11T21:57:20;8.52;;;2.10;;
53757;SDS011;39674;59.860;30.672;2022-08-11T22:03:11;8.00;;;2.28;;
53757;SDS011;39674;59.860;30.672;2022-08-11T22:06:06;16.10;;;2.17;;
53757;SDS011;39674;59.860;30.672;2022-08-11T22:09:05;7.47;;;2.20;;
53757;SDS011;39674;59.860;30.672;2022-08-11T22:12:03;8.82;;;1.95;;
53757;SDS011;39674;59.860;30.672;2022-08-11T22:14:52;5.05;;;2.20;;
53757;SDS011;39674;59.860;30.672;2022-08-11T22:17:54;5.95;;;1.80;;
53757;SDS011;39674;59.860;30.672;2022-08-11T22:20:55;7.72;;;2.17;;
53757;SDS011;39674;59.860;30.672;2022-08-11T22:23:53;4.28;;;2.13;;
53757;SDS011;39674;59.860;30.672;2022-08-11T22:26:52;3.92;;;2.08;;
53757;SDS011;39674;59.860;30.672;2022-08-11T22:29:55;8.23;;;2.08;;
53757;SDS011;39674;59.860;30.672;2022-08-11T22:32:50;6.40;;;2.33;;
53757;SDS011;39674;59.860;30.672;2022-08-11T22:35:48;5.35;;;2.00;;
53757;SDS011;39674;59.860;30.672;2022-08-11T22:38:45;12.73;;;2.45;;
53757;SDS011;39674;59.860;30.672;2022-08-11T22:41:39;4.03;;;1.60;;
53757;SDS011;39674;59.860;30.672;2022-08-11T22:44:42;17.77;;;2.22;;
53757;SDS011;39674;59.860;30.672;2022-08-11T22:47:33;6.80;;;2.13;;
53757;SDS011;39674;59.860;30.672;2022-08-11T22:50:43;5.40;;;2.28;;
53757;SDS011;39674;59.860;30.672;2022-08-11T22:53:33;7.78;;;2.45;;
53757;SDS011;39674;59.860;30.672;2022-08-11T22:56:31;5.60;;;2.10;;
53757;SDS011;39674;59.860;30.672;2022-08-11T22:59:28;5.85;;;2.25;;
53757;SDS011;39674;59.860;30.672;2022-08-11T23:02:27;6.35;;;2.35;;
53757;SDS011;39674;59.860;30.672;2022-08-11T23:05:21;5.80;;;2.13;;
53757;SDS011;39674;59.860;30.672;2022-08-11T23:08:37;5.10;;;2.08;;
53757;SDS011;39674;59.860;30.672;2022-08-11T23:11:45;8.43;;;1.98;;
53757;SDS011;39674;59.860;30.672;2022-08-11T23:14:36;5.85;;;2.15;;
53757;SDS011;39674;59.860;30.672;2022-08-11T23:17:30;16.02;;;2.85;;
53757;SDS011;39674;59.860;30.672;2022-08-11T23:20:51;5.43;;;2.00;;
53757;SDS011;39674;59.860;30.672;2022-08-11T23:23:43;10.07;;;2.10;;
53757;SDS011;39674;59.860;30.672;2022-08-11T23:26:34;7.00;;;1.55;;
53757;SDS011;39674;59.860;30.672;2022-08-11T23:29:33;10.68;;;2.33;;
53757;SDS011;39674;59.860;30.672;2022-08-11T23:32:35;5.60;;;2.22;;
53757;SDS011;39674;59.860;30.672;2022-08-11T23:35:29;5.93;;;2.30;;
53757;SDS011;39674;59.860;30.672;2022-08-11T23:38:32;5.50;;;2.60;;
53757;SDS011;39674;59.860;30.672;2022-08-11T23:41:25;6.20;;;2.45;;
53757;SDS011;39674;59.860;30.672;2022-08-11T23:44:34;8.05;;;2.13;;
53757;SDS011;39674;59.860;30.672;2022-08-11T23:47:41;11.38;;;2.38;;
53757;SDS011;39674;59.860;30.672;2022-08-11T23:50:32;4.10;;;2.58;;
53757;SDS011;39674;59.860;30.672;2022-08-11T23:53:35;4.32;;;2.17;;
53757;SDS011;39674;59.860;30.672;2022-08-11T23:56:35;7.90;;;2.78;;
53757;SDS011;39674;59.860;30.672;2022-08-11T23:59:25;6.05;;;2.55;;
